createdAt,value
2018-11-26T00:00:38.227Z,0.00
2018-11-26T00:01:38.215Z,0.00
2018-11-26T00:02:38.203Z,0.00
2018-11-26T00:03:38.191Z,0.00
2018-11-26T00:04:38.182Z,0.00
2018-11-26T00:05:38.176Z,0.00
2018-11-26T00:06:38.159Z,0.00
2018-11-26T00:07:38.150Z,0.00
2018-11-26T00:08:38.139Z,0.00
2018-11-26T00:09:38.125Z,0.00
2018-11-26T00:10:38.114Z,0.00
2018-11-26T00:11:38.104Z,0.00
2018-11-26T00:12:38.091Z,0.00
2018-11-26T00:13:38.079Z,0.00
2018-11-26T00:14:38.069Z,0.00
2018-11-26T00:15:38.058Z,0.00
2018-11-26T00:16:38.047Z,0.00
2018-11-26T00:17:38.035Z,0.00
2018-11-26T00:18:38.033Z,0.00
2018-11-26T00:19:38.014Z,0.00
2018-11-26T00:20:38.013Z,0.00
2018-11-26T00:21:37.998Z,0.00
2018-11-26T00:22:37.980Z,0.00
2018-11-26T00:23:37.969Z,0.00
2018-11-26T00:24:37.958Z,0.00
2018-11-26T00:25:37.948Z,0.00
2018-11-26T00:26:37.940Z,0.00
2018-11-26T00:27:37.926Z,0.00
2018-11-26T00:28:37.920Z,0.00
2018-11-26T00:29:37.908Z,0.00
2018-11-26T00:30:37.902Z,0.00
2018-11-26T00:31:37.892Z,0.00
2018-11-26T00:32:37.869Z,0.00
2018-11-26T00:33:37.859Z,0.00
2018-11-26T00:34:37.848Z,0.00
2018-11-26T00:35:37.839Z,0.00
2018-11-26T00:36:37.832Z,0.00
2018-11-26T00:37:37.817Z,0.00
2018-11-26T00:38:37.806Z,0.00
2018-11-26T00:39:37.799Z,0.00
2018-11-26T00:40:37.785Z,0.00
2018-11-26T00:41:37.770Z,0.00
2018-11-26T00:42:37.760Z,0.00
2018-11-26T00:43:37.749Z,0.00
2018-11-26T00:44:37.738Z,0.00
2018-11-26T00:45:37.727Z,0.00
2018-11-26T00:46:37.716Z,0.00
2018-11-26T00:47:37.717Z,0.00
2018-11-26T00:48:37.696Z,0.00
2018-11-26T00:49:37.684Z,0.00
2018-11-26T00:50:37.673Z,0.00
2018-11-26T00:51:37.664Z,0.00
2018-11-26T00:52:37.655Z,0.00
2018-11-26T00:53:37.641Z,0.00
2018-11-26T00:54:37.643Z,0.00
2018-11-26T00:55:37.620Z,0.00
2018-11-26T00:56:37.613Z,0.00
2018-11-26T00:57:37.602Z,0.00
2018-11-26T00:58:37.590Z,0.00
2018-11-26T00:59:37.576Z,0.00
2018-11-26T01:00:37.571Z,0.00
2018-11-26T01:01:37.551Z,0.00
2018-11-26T01:02:37.540Z,0.00
2018-11-26T01:03:37.532Z,0.00
2018-11-26T01:04:37.521Z,0.00
2018-11-26T01:05:37.507Z,0.00
2018-11-26T01:06:37.497Z,0.00
2018-11-26T01:07:37.489Z,0.00
2018-11-26T01:08:37.476Z,0.00
2018-11-26T01:09:37.468Z,0.00
2018-11-26T01:10:37.454Z,0.00
2018-11-26T01:11:37.442Z,0.00
2018-11-26T01:12:37.438Z,0.00
2018-11-26T01:13:37.419Z,0.00
2018-11-26T01:14:37.410Z,0.00
2018-11-26T01:15:37.404Z,0.00
2018-11-26T01:16:37.385Z,0.00
2018-11-26T01:17:37.379Z,0.00
2018-11-26T01:18:37.367Z,0.00
2018-11-26T01:19:37.355Z,0.00
2018-11-26T01:20:37.345Z,0.00
2018-11-26T01:21:37.330Z,0.00
2018-11-26T01:22:37.322Z,0.00
2018-11-26T01:23:37.311Z,0.00
2018-11-26T01:24:37.299Z,0.00
2018-11-26T01:25:37.288Z,0.00
2018-11-26T01:26:37.279Z,0.00
2018-11-26T01:27:37.264Z,0.00
2018-11-26T01:28:37.254Z,0.00
2018-11-26T01:29:37.289Z,0.00
2018-11-26T01:30:37.233Z,0.00
2018-11-26T01:31:37.228Z,0.00
2018-11-26T01:32:37.213Z,0.00
2018-11-26T01:33:37.201Z,0.00
2018-11-26T01:34:37.189Z,0.00
2018-11-26T01:35:37.179Z,0.00
2018-11-26T01:36:37.162Z,0.00
2018-11-26T01:37:37.152Z,0.00
2018-11-26T01:38:37.139Z,0.00
2018-11-26T01:39:37.130Z,0.00
2018-11-26T01:40:37.119Z,0.00
2018-11-26T01:41:37.105Z,0.00
2018-11-26T01:42:37.095Z,0.00
2018-11-26T01:43:37.083Z,0.00
2018-11-26T01:44:37.073Z,0.00
2018-11-26T01:45:37.064Z,0.00
2018-11-26T01:46:37.061Z,0.00
2018-11-26T01:47:37.041Z,0.00
2018-11-26T01:48:37.027Z,0.00
2018-11-26T01:49:37.022Z,0.00
2018-11-26T01:50:37.015Z,0.00
2018-11-26T01:51:36.994Z,0.00
2018-11-26T01:52:36.985Z,0.00
2018-11-26T01:53:36.973Z,0.00
2018-11-26T01:54:36.960Z,0.00
2018-11-26T01:55:36.949Z,0.00
2018-11-26T01:56:36.956Z,0.00
2018-11-26T01:57:36.927Z,0.00
2018-11-26T01:58:36.914Z,0.00
2018-11-26T01:59:36.922Z,0.00
2018-11-26T02:00:36.923Z,0.00
2018-11-26T02:01:36.882Z,0.00
2018-11-26T02:02:36.879Z,0.00
2018-11-26T02:03:36.859Z,0.00
2018-11-26T02:04:36.883Z,0.00
2018-11-26T02:05:36.842Z,0.00
2018-11-26T02:06:36.868Z,0.00
2018-11-26T02:07:36.813Z,0.00
2018-11-26T02:08:36.862Z,0.00
2018-11-26T02:09:36.792Z,0.00
2018-11-26T02:10:36.795Z,0.00
2018-11-26T02:11:36.771Z,0.00
2018-11-26T02:12:36.788Z,0.00
2018-11-26T02:13:36.745Z,0.00
2018-11-26T02:14:36.737Z,0.00
2018-11-26T02:15:36.725Z,0.00
2018-11-26T02:16:36.747Z,0.00
2018-11-26T02:17:36.702Z,0.00
2018-11-26T02:18:36.692Z,0.00
2018-11-26T02:19:36.678Z,0.00
2018-11-26T02:20:36.687Z,0.00
2018-11-26T02:21:36.660Z,0.00
2018-11-26T02:22:36.687Z,0.00
2018-11-26T02:23:36.638Z,0.00
2018-11-26T02:24:36.660Z,0.00
2018-11-26T02:25:36.609Z,0.00
2018-11-26T02:26:36.602Z,0.00
2018-11-26T02:27:36.587Z,0.00
2018-11-26T02:28:36.604Z,0.00
2018-11-26T02:29:36.566Z,0.00
2018-11-26T02:30:36.559Z,0.00
2018-11-26T02:31:36.543Z,0.00
2018-11-26T02:32:36.561Z,0.00
2018-11-26T02:33:36.567Z,0.00
2018-11-26T02:34:36.520Z,0.00
2018-11-26T02:35:36.504Z,0.00
2018-11-26T02:36:36.485Z,0.00
2018-11-26T02:37:36.475Z,0.00
2018-11-26T02:38:36.472Z,0.00
2018-11-26T02:39:36.473Z,0.00
2018-11-26T02:40:36.445Z,0.00
2018-11-26T02:41:36.431Z,0.00
2018-11-26T02:42:36.424Z,0.00
2018-11-26T02:44:36.401Z,0.00
2018-11-26T02:46:36.373Z,0.00
2018-11-26T02:48:36.352Z,0.00
2018-11-26T02:50:36.330Z,0.00
2018-11-26T02:51:36.322Z,0.00
2018-11-26T02:53:36.296Z,0.00
2018-11-26T02:54:36.283Z,0.00
2018-11-26T02:55:36.272Z,0.00
2018-11-26T02:57:36.255Z,0.00
2018-11-26T02:58:36.237Z,0.00
2018-11-26T03:00:36.215Z,0.00
2018-11-26T03:02:36.194Z,0.00
2018-11-26T03:04:36.221Z,0.00
2018-11-26T03:05:36.163Z,0.00
2018-11-26T03:06:36.147Z,0.00
2018-11-26T03:18:36.018Z,0.00
2018-11-26T03:22:35.994Z,0.00
2018-11-26T03:30:35.881Z,0.00
2018-11-26T03:32:35.858Z,0.00
2018-11-26T03:33:35.843Z,0.00
2018-11-26T03:34:35.834Z,0.00
2018-11-26T03:38:35.788Z,0.00
2018-11-26T03:40:35.764Z,0.00
2018-11-26T03:44:35.722Z,0.00
2018-11-26T03:45:35.709Z,0.00
2018-11-26T03:46:35.700Z,0.00
2018-11-26T03:47:35.685Z,0.00
2018-11-26T03:48:35.674Z,0.00
2018-11-26T03:49:35.663Z,0.00
2018-11-26T03:50:35.652Z,0.00
2018-11-26T03:52:35.629Z,0.00
2018-11-26T03:53:35.618Z,0.00
2018-11-26T03:54:35.609Z,0.00
2018-11-26T03:55:35.598Z,0.00
2018-11-26T03:56:35.585Z,0.00
2018-11-26T03:57:35.585Z,0.00
2018-11-26T03:58:35.562Z,0.00
2018-11-26T03:59:35.553Z,0.00
2018-11-26T04:01:35.536Z,0.00
2018-11-26T04:02:35.519Z,0.00
2018-11-26T04:03:35.514Z,0.00
2018-11-26T04:04:35.500Z,0.00
2018-11-26T04:05:35.486Z,0.00
2018-11-26T04:06:35.472Z,0.00
2018-11-26T04:07:35.463Z,0.00
2018-11-26T04:08:35.459Z,0.00
2018-11-26T04:10:35.429Z,0.00
2018-11-26T04:11:35.418Z,0.00
2018-11-26T04:12:35.407Z,0.00
2018-11-26T04:13:35.396Z,0.00
2018-11-26T04:14:35.382Z,0.00
2018-11-26T04:15:35.371Z,0.00
2018-11-26T04:16:35.364Z,0.00
2018-11-26T04:17:35.348Z,0.00
2018-11-26T04:18:35.340Z,0.00
2018-11-26T04:19:35.326Z,0.00
2018-11-26T04:20:35.325Z,0.00
2018-11-26T04:21:35.308Z,0.00
2018-11-26T04:22:35.294Z,0.00
2018-11-26T04:23:35.283Z,0.00
2018-11-26T04:24:35.274Z,0.00
2018-11-26T04:25:35.259Z,0.00
2018-11-26T04:26:35.255Z,0.00
2018-11-26T04:27:35.262Z,0.00
2018-11-26T04:28:35.229Z,0.00
2018-11-26T04:29:35.217Z,4.00
2018-11-26T04:30:35.220Z,4.00
2018-11-26T04:31:35.201Z,4.00
2018-11-26T04:32:35.183Z,4.00
2018-11-26T04:33:35.170Z,4.00
2018-11-26T04:34:35.160Z,4.00
2018-11-26T04:35:35.164Z,4.00
2018-11-26T04:36:35.138Z,4.00
2018-11-26T04:37:35.148Z,4.00
2018-11-26T04:38:35.116Z,4.00
2018-11-26T04:39:35.102Z,4.00
2018-11-26T04:40:35.097Z,4.00
2018-11-26T04:41:35.079Z,4.00
2018-11-26T04:42:35.076Z,4.00
2018-11-26T04:43:35.059Z,4.00
2018-11-26T04:44:35.053Z,4.00
2018-11-26T04:45:35.037Z,4.00
2018-11-26T04:46:35.035Z,4.00
2018-11-26T04:47:35.017Z,4.00
2018-11-26T04:48:35.000Z,4.00
2018-11-26T04:49:35.009Z,4.00
2018-11-26T04:50:34.978Z,4.00
2018-11-26T04:51:34.968Z,4.00
2018-11-26T04:52:34.962Z,4.00
2018-11-26T04:53:34.942Z,4.00
2018-11-26T04:54:34.930Z,4.00
2018-11-26T04:55:34.921Z,4.00
2018-11-26T04:56:34.945Z,4.00
2018-11-26T04:57:35.612Z,4.00
2018-11-26T04:58:34.892Z,4.00
2018-11-26T04:59:34.885Z,4.00
2018-11-26T05:00:34.863Z,4.00
2018-11-26T05:01:34.857Z,4.00
2018-11-26T05:02:34.839Z,4.00
2018-11-26T05:03:34.830Z,4.00
2018-11-26T05:04:34.822Z,4.00
2018-11-26T05:05:34.811Z,4.00
2018-11-26T05:06:34.800Z,4.00
2018-11-26T05:07:34.786Z,60.00
2018-11-26T05:08:34.773Z,76.00
2018-11-26T05:09:34.766Z,76.00
2018-11-26T05:10:34.755Z,76.00
2018-11-26T05:11:34.752Z,76.00
2018-11-26T05:12:34.742Z,80.00
2018-11-26T05:13:34.721Z,80.00
2018-11-26T05:14:34.736Z,76.00
2018-11-26T05:15:34.717Z,80.00
2018-11-26T05:16:34.682Z,80.00
2018-11-26T05:17:34.678Z,76.00
2018-11-26T05:18:34.660Z,76.00
2018-11-26T05:19:34.648Z,76.00
2018-11-26T05:20:34.639Z,76.00
2018-11-26T05:21:34.625Z,76.00
2018-11-26T05:22:34.616Z,76.00
2018-11-26T05:23:34.603Z,4.00
2018-11-26T05:24:34.593Z,4.00
2018-11-26T05:25:34.588Z,4.00
2018-11-26T05:26:34.571Z,4.00
2018-11-26T05:27:34.558Z,4.00
2018-11-26T05:28:34.564Z,4.00
2018-11-26T05:29:34.535Z,4.00
2018-11-26T05:30:34.526Z,4.00
2018-11-26T05:31:34.514Z,4.00
2018-11-26T05:32:34.501Z,4.00
2018-11-26T05:33:34.492Z,4.00
2018-11-26T05:34:34.479Z,4.00
2018-11-26T05:35:34.468Z,4.00
2018-11-26T05:36:34.458Z,4.00
2018-11-26T05:37:34.445Z,4.00
2018-11-26T05:38:34.434Z,4.00
2018-11-26T05:39:34.423Z,4.00
2018-11-26T05:40:34.413Z,4.00
2018-11-26T05:41:34.400Z,4.00
2018-11-26T05:42:34.388Z,4.00
2018-11-26T05:43:34.385Z,4.00
2018-11-26T05:44:34.366Z,0.00
2018-11-26T05:45:34.357Z,0.00
2018-11-26T05:46:34.344Z,0.00
2018-11-26T05:47:34.336Z,0.00
2018-11-26T05:48:34.327Z,0.00
2018-11-26T05:49:34.309Z,0.00
2018-11-26T05:50:34.299Z,0.00
2018-11-26T05:51:34.287Z,0.00
2018-11-26T05:52:34.278Z,0.00
2018-11-26T05:53:34.272Z,0.00
2018-11-26T05:54:34.253Z,0.00
2018-11-26T05:55:34.244Z,0.00
2018-11-26T05:56:34.238Z,0.00
2018-11-26T05:57:34.223Z,0.00
2018-11-26T05:58:34.209Z,0.00
2018-11-26T05:59:34.200Z,0.00
2018-11-26T06:00:34.185Z,0.00
2018-11-26T06:01:34.173Z,0.00
2018-11-26T06:02:34.163Z,0.00
2018-11-26T06:03:34.158Z,4.00
2018-11-26T06:04:34.141Z,4.00
2018-11-26T06:05:34.133Z,4.00
2018-11-26T06:06:34.117Z,4.00
2018-11-26T06:07:34.107Z,4.00
2018-11-26T06:08:34.095Z,4.00
2018-11-26T06:09:34.090Z,4.00
2018-11-26T06:10:34.072Z,4.00
2018-11-26T06:11:34.070Z,4.00
2018-11-26T06:12:34.050Z,4.00
2018-11-26T06:13:34.038Z,4.00
2018-11-26T06:14:34.030Z,4.00
2018-11-26T06:15:34.017Z,4.00
2018-11-26T06:16:34.007Z,4.00
2018-11-26T06:17:33.996Z,0.00
2018-11-26T06:18:33.983Z,4.00
2018-11-26T06:19:33.971Z,4.00
2018-11-26T06:20:34.005Z,4.00
2018-11-26T06:21:33.954Z,4.00
2018-11-26T06:22:33.943Z,8.00
2018-11-26T06:23:33.928Z,4.00
2018-11-26T06:24:33.920Z,4.00
2018-11-26T06:25:33.909Z,8.00
2018-11-26T06:26:33.893Z,8.00
2018-11-26T06:27:33.881Z,8.00
2018-11-26T06:28:33.876Z,12.00
2018-11-26T06:29:33.860Z,12.00
2018-11-26T06:30:33.846Z,12.00
2018-11-26T06:31:33.836Z,16.00
2018-11-26T06:32:33.824Z,20.00
2018-11-26T06:33:33.813Z,20.00
2018-11-26T06:34:33.801Z,20.00
2018-11-26T06:35:33.791Z,28.00
2018-11-26T06:36:33.784Z,28.00
2018-11-26T06:37:33.771Z,32.00
2018-11-26T06:38:33.761Z,36.00
2018-11-26T06:39:33.745Z,40.00
2018-11-26T06:40:33.734Z,44.00
2018-11-26T06:41:33.727Z,48.00
2018-11-26T06:42:33.711Z,56.00
2018-11-26T06:43:33.704Z,60.00
2018-11-26T06:44:33.694Z,64.00
2018-11-26T06:45:33.681Z,64.00
2018-11-26T06:46:33.668Z,76.00
2018-11-26T06:47:33.657Z,80.00
2018-11-26T06:48:33.644Z,84.00
2018-11-26T06:49:33.633Z,84.00
2018-11-26T06:50:33.622Z,80.00
2018-11-26T06:51:33.610Z,76.00
2018-11-26T06:52:33.602Z,80.00
2018-11-26T06:53:33.593Z,92.00
2018-11-26T06:54:33.578Z,104.00
2018-11-26T06:55:33.571Z,96.00
2018-11-26T06:56:33.556Z,104.00
2018-11-26T06:57:33.544Z,112.00
2018-11-26T06:58:33.539Z,120.00
2018-11-26T06:59:33.529Z,120.00
2018-11-26T07:00:33.509Z,128.00
2018-11-26T07:01:33.498Z,124.00
2018-11-26T07:02:33.486Z,116.00
2018-11-26T07:03:33.475Z,132.00
2018-11-26T07:04:33.472Z,148.00
2018-11-26T07:05:33.458Z,148.00
2018-11-26T07:06:33.443Z,148.00
2018-11-26T07:07:33.430Z,124.00
2018-11-26T07:08:33.419Z,128.00
2018-11-26T07:09:33.409Z,136.00
2018-11-26T07:10:33.396Z,156.00
2018-11-26T07:11:33.385Z,156.00
2018-11-26T07:12:33.375Z,156.00
2018-11-26T07:13:33.372Z,148.00
2018-11-26T07:14:33.353Z,136.00
2018-11-26T07:15:33.343Z,128.00
2018-11-26T07:16:33.329Z,144.00
2018-11-26T07:17:33.319Z,172.00
2018-11-26T07:18:33.307Z,176.00
2018-11-26T07:19:33.297Z,168.00
2018-11-26T07:20:33.288Z,172.00
2018-11-26T07:21:33.287Z,168.00
2018-11-26T07:22:33.274Z,200.00
2018-11-26T07:23:33.258Z,204.00
2018-11-26T07:24:33.243Z,188.00
2018-11-26T07:25:33.229Z,240.00
2018-11-26T07:26:33.219Z,288.00
2018-11-26T07:27:33.209Z,300.00
2018-11-26T07:28:33.195Z,312.00
2018-11-26T07:29:33.185Z,324.00
2018-11-26T07:30:33.179Z,376.00
2018-11-26T07:31:33.163Z,400.00
2018-11-26T07:32:33.155Z,384.00
2018-11-26T07:33:33.141Z,464.00
2018-11-26T07:34:33.134Z,500.00
2018-11-26T07:35:33.122Z,516.00
2018-11-26T07:36:33.108Z,496.00
2018-11-26T07:37:33.093Z,476.00
2018-11-26T07:38:33.083Z,568.00
2018-11-26T07:39:33.082Z,548.00
2018-11-26T07:40:33.068Z,476.00
2018-11-26T07:41:33.052Z,488.00
2018-11-26T07:42:33.038Z,564.00
2018-11-26T07:43:33.027Z,656.00
2018-11-26T07:44:33.017Z,708.00
2018-11-26T07:45:33.014Z,708.00
2018-11-26T07:46:32.993Z,668.00
2018-11-26T07:47:32.981Z,628.00
2018-11-26T07:48:32.974Z,632.00
2018-11-26T07:49:32.962Z,672.00
2018-11-26T07:50:32.954Z,752.00
2018-11-26T07:51:32.936Z,692.00
2018-11-26T07:52:32.924Z,608.00
2018-11-26T07:53:32.917Z,632.00
2018-11-26T07:54:32.907Z,640.00
2018-11-26T07:55:32.895Z,696.00
2018-11-26T07:56:32.885Z,736.00
2018-11-26T07:57:32.868Z,764.00
2018-11-26T07:58:32.865Z,712.00
2018-11-26T07:59:32.848Z,752.00
2018-11-26T08:00:32.834Z,712.00
2018-11-26T08:01:32.822Z,664.00
2018-11-26T08:02:32.819Z,672.00
2018-11-26T08:03:32.804Z,744.00
2018-11-26T08:04:32.794Z,916.00
2018-11-26T08:05:32.779Z,824.00
2018-11-26T08:06:32.769Z,760.00
2018-11-26T08:07:32.759Z,744.00
2018-11-26T08:08:32.746Z,844.00
2018-11-26T08:09:32.737Z,924.00
2018-11-26T08:10:32.722Z,796.00
2018-11-26T08:11:32.711Z,836.00
2018-11-26T08:12:32.704Z,920.00
2018-11-26T08:13:32.691Z,924.00
2018-11-26T08:14:32.677Z,876.00
2018-11-26T08:15:32.675Z,904.00
2018-11-26T08:16:32.656Z,984.00
2018-11-26T08:17:32.646Z,976.00
2018-11-26T08:18:32.650Z,1112.00
2018-11-26T08:19:32.623Z,1004.00
2018-11-26T08:20:32.610Z,932.00
2018-11-26T08:21:32.600Z,980.00
2018-11-26T08:22:32.589Z,1064.00
2018-11-26T08:23:32.577Z,956.00
2018-11-26T08:24:32.565Z,1092.00
2018-11-26T08:25:32.555Z,1156.00
2018-11-26T08:26:32.549Z,1084.00
2018-11-26T08:27:32.533Z,952.00
2018-11-26T08:28:32.521Z,968.00
2018-11-26T08:29:32.510Z,952.00
2018-11-26T08:30:32.505Z,1076.00
2018-11-26T08:31:32.487Z,1252.00
2018-11-26T08:32:34.116Z,1236.00
2018-11-26T08:33:32.468Z,1128.00
2018-11-26T08:34:32.457Z,1120.00
2018-11-26T08:35:32.441Z,1236.00
2018-11-26T08:36:32.433Z,1220.00
2018-11-26T08:37:32.423Z,1188.00
2018-11-26T08:38:32.412Z,1220.00
2018-11-26T08:39:32.405Z,1324.00
2018-11-26T08:40:32.395Z,1308.00
2018-11-26T08:41:32.382Z,1372.00
2018-11-26T08:42:32.364Z,1388.00
2018-11-26T08:43:32.358Z,1396.00
2018-11-26T08:44:32.379Z,1476.00
2018-11-26T08:45:32.340Z,1508.00
2018-11-26T08:46:32.322Z,1540.00
2018-11-26T08:47:32.309Z,1524.00
2018-11-26T08:48:32.301Z,1560.00
2018-11-26T08:49:32.292Z,1708.00
2018-11-26T08:50:32.276Z,1744.00
2018-11-26T08:51:32.265Z,1728.00
2018-11-26T08:52:32.254Z,1740.00
2018-11-26T08:53:32.253Z,1764.00
2018-11-26T08:54:32.237Z,1748.00
2018-11-26T08:55:32.220Z,1664.00
2018-11-26T08:56:32.211Z,1684.00
2018-11-26T08:57:32.199Z,1748.00
2018-11-26T08:58:32.188Z,1776.00
2018-11-26T08:59:32.178Z,1824.00
2018-11-26T09:00:32.167Z,1784.00
2018-11-26T09:01:32.161Z,1912.00
2018-11-26T09:02:32.143Z,1984.00
2018-11-26T09:03:32.333Z,2072.00
2018-11-26T09:04:32.129Z,2092.00
2018-11-26T09:05:32.133Z,1964.00
2018-11-26T09:06:32.135Z,2120.00
2018-11-26T09:07:32.141Z,2044.00
2018-11-26T09:08:32.087Z,2060.00
2018-11-26T09:09:32.890Z,2044.00
2018-11-26T09:10:32.090Z,1968.00
2018-11-26T09:11:32.094Z,2112.00
2018-11-26T09:12:32.035Z,2244.00
2018-11-26T09:13:32.021Z,2280.00
2018-11-26T09:14:32.015Z,2296.00
2018-11-26T09:15:32.004Z,2412.00
2018-11-26T09:16:31.997Z,2508.00
2018-11-26T09:17:31.978Z,2752.00
2018-11-26T09:18:31.965Z,2740.00
2018-11-26T09:19:31.954Z,2724.00
2018-11-26T09:20:31.952Z,3024.00
2018-11-26T09:21:31.941Z,3196.00
2018-11-26T09:22:31.922Z,3104.00
2018-11-26T09:23:31.911Z,2828.00
2018-11-26T09:24:31.907Z,2532.00
2018-11-26T09:25:31.888Z,2304.00
2018-11-26T09:26:31.877Z,2656.00
2018-11-26T09:27:31.867Z,2736.00
2018-11-26T09:28:31.855Z,2796.00
2018-11-26T09:29:31.845Z,2944.00
2018-11-26T09:30:31.836Z,2504.00
2018-11-26T09:31:32.499Z,2460.00
2018-11-26T09:32:31.812Z,2596.00
2018-11-26T09:33:31.805Z,2596.00
2018-11-26T09:34:31.789Z,2448.00
2018-11-26T09:35:31.782Z,2600.00
2018-11-26T09:36:31.769Z,2588.00
2018-11-26T09:37:31.757Z,2348.00
2018-11-26T09:38:31.747Z,2300.00
2018-11-26T09:39:31.733Z,2488.00
2018-11-26T09:40:31.725Z,2272.00
2018-11-26T09:41:31.722Z,2324.00
2018-11-26T09:42:31.707Z,2360.00
2018-11-26T09:43:31.692Z,2168.00
2018-11-26T09:44:31.678Z,2152.00
2018-11-26T09:45:31.673Z,2328.00
2018-11-26T09:46:31.661Z,2132.00
2018-11-26T09:47:31.646Z,1952.00
2018-11-26T09:48:31.637Z,2004.00
2018-11-26T09:49:31.625Z,2036.00
2018-11-26T09:50:31.614Z,1892.00
2018-11-26T09:51:31.602Z,2028.00
2018-11-26T09:52:31.591Z,1928.00
2018-11-26T09:53:31.583Z,1988.00
2018-11-26T09:54:31.576Z,2120.00
2018-11-26T09:55:31.565Z,2444.00
2018-11-26T09:56:31.555Z,2472.00
2018-11-26T09:57:31.537Z,2620.00
2018-11-26T09:58:31.525Z,3072.00
2018-11-26T09:59:31.520Z,2752.00
2018-11-26T10:00:31.502Z,2556.00
2018-11-26T10:01:31.499Z,2948.00
2018-11-26T10:02:31.483Z,2992.00
2018-11-26T10:03:31.477Z,2516.00
2018-11-26T10:04:31.459Z,2420.00
2018-11-26T10:05:31.447Z,2480.00
2018-11-26T10:06:31.438Z,2768.00
2018-11-26T10:07:31.430Z,3000.00
2018-11-26T10:08:31.418Z,3324.00
2018-11-26T10:09:31.405Z,3596.00
2018-11-26T10:10:31.394Z,2852.00
2018-11-26T10:11:31.385Z,3088.00
2018-11-26T10:12:31.372Z,3208.00
2018-11-26T10:13:31.359Z,3556.00
2018-11-26T10:14:31.351Z,3656.00
2018-11-26T10:15:31.342Z,3660.00
2018-11-26T10:16:31.328Z,3252.00
2018-11-26T10:17:31.317Z,3696.00
2018-11-26T10:18:31.304Z,4224.00
2018-11-26T10:19:31.293Z,4316.00
2018-11-26T10:20:31.292Z,4264.00
2018-11-26T10:21:31.271Z,4016.00
2018-11-26T10:22:31.263Z,3400.00
2018-11-26T10:23:31.251Z,3592.00
2018-11-26T10:24:31.247Z,2940.00
2018-11-26T10:25:31.228Z,3488.00
2018-11-26T10:26:31.217Z,3508.00
2018-11-26T10:27:31.206Z,4108.00
2018-11-26T10:28:31.198Z,3988.00
2018-11-26T10:29:31.187Z,3816.00
2018-11-26T10:30:31.177Z,3768.00
2018-11-26T10:31:31.165Z,3344.00
2018-11-26T10:32:31.151Z,2860.00
2018-11-26T10:33:31.140Z,2896.00
2018-11-26T10:34:31.136Z,3248.00
2018-11-26T10:35:31.117Z,3296.00
2018-11-26T10:36:31.112Z,3252.00
2018-11-26T10:37:31.102Z,2604.00
2018-11-26T10:38:31.090Z,2452.00
2018-11-26T10:39:31.074Z,2788.00
2018-11-26T10:40:31.273Z,3280.00
2018-11-26T10:41:31.050Z,3192.00
2018-11-26T10:42:31.039Z,3080.00
2018-11-26T10:43:31.028Z,2688.00
2018-11-26T10:44:31.020Z,2800.00
2018-11-26T10:45:31.005Z,2456.00
2018-11-26T10:46:30.996Z,2676.00
2018-11-26T10:47:30.986Z,2540.00
2018-11-26T10:48:30.976Z,2472.00
2018-11-26T10:49:30.969Z,2756.00
2018-11-26T10:50:30.953Z,3044.00
2018-11-26T10:51:30.940Z,2876.00
2018-11-26T10:52:30.929Z,2592.00
2018-11-26T10:53:30.920Z,2620.00
2018-11-26T10:54:30.906Z,2528.00
2018-11-26T10:55:30.908Z,2664.00
2018-11-26T10:56:30.890Z,2404.00
2018-11-26T10:57:30.876Z,2588.00
2018-11-26T10:58:31.036Z,2668.00
2018-11-26T10:59:30.859Z,2924.00
2018-11-26T11:00:30.841Z,2796.00
2018-11-26T11:01:30.830Z,2716.00
2018-11-26T11:02:30.818Z,3072.00
2018-11-26T11:03:30.809Z,3236.00
2018-11-26T11:04:30.795Z,3028.00
2018-11-26T11:05:30.784Z,3704.00
2018-11-26T11:06:30.775Z,3212.00
2018-11-26T11:07:30.763Z,3348.00
2018-11-26T11:08:30.753Z,3428.00
2018-11-26T11:09:30.776Z,3740.00
2018-11-26T11:10:30.729Z,4392.00
2018-11-26T11:11:30.723Z,4220.00
2018-11-26T11:12:30.706Z,3496.00
2018-11-26T11:13:30.706Z,2996.00
2018-11-26T11:14:30.689Z,3056.00
2018-11-26T11:15:30.673Z,3152.00
2018-11-26T11:16:30.664Z,3088.00
2018-11-26T11:17:30.659Z,3488.00
2018-11-26T11:18:30.645Z,3560.00
2018-11-26T11:19:30.630Z,3360.00
2018-11-26T11:20:30.624Z,3400.00
2018-11-26T11:21:30.608Z,3396.00
2018-11-26T11:22:30.596Z,3228.00
2018-11-26T11:23:30.585Z,3060.00
2018-11-26T11:24:30.575Z,3312.00
2018-11-26T11:25:30.561Z,3236.00
2018-11-26T11:26:30.552Z,3064.00
2018-11-26T11:27:30.540Z,2872.00
2018-11-26T11:28:30.527Z,2680.00
2018-11-26T11:29:30.516Z,2456.00
2018-11-26T11:30:30.506Z,2228.00
2018-11-26T11:31:30.495Z,2220.00
2018-11-26T11:32:30.533Z,2196.00
2018-11-26T11:33:30.473Z,2268.00
2018-11-26T11:34:30.461Z,2348.00
2018-11-26T11:35:30.454Z,2572.00
2018-11-26T11:36:30.480Z,2760.00
2018-11-26T11:37:30.428Z,3060.00
2018-11-26T11:38:30.417Z,3408.00
2018-11-26T11:39:30.407Z,3904.00
2018-11-26T11:40:30.399Z,3956.00
2018-11-26T11:41:34.294Z,3808.00
2018-11-26T11:42:30.372Z,3964.00
2018-11-26T11:43:30.361Z,3752.00
2018-11-26T11:44:30.353Z,3556.00
2018-11-26T11:45:30.339Z,3348.00
2018-11-26T11:46:30.329Z,3292.00
2018-11-26T11:47:30.315Z,3412.00
2018-11-26T11:48:30.307Z,3528.00
2018-11-26T11:49:30.293Z,3564.00
2018-11-26T11:50:30.283Z,3432.00
2018-11-26T11:51:30.272Z,3504.00
2018-11-26T11:52:30.261Z,3664.00
2018-11-26T11:53:30.255Z,3396.00
2018-11-26T11:54:30.244Z,3124.00
2018-11-26T11:55:30.234Z,2916.00
2018-11-26T11:56:30.221Z,2744.00
2018-11-26T11:57:30.203Z,2508.00
2018-11-26T11:58:30.192Z,2380.00
2018-11-26T11:59:30.189Z,2180.00
2018-11-26T12:00:30.173Z,2064.00
2018-11-26T12:01:30.159Z,2104.00
2018-11-26T12:02:30.148Z,2404.00
2018-11-26T12:03:30.141Z,2540.00
2018-11-26T12:04:30.124Z,2400.00
2018-11-26T12:05:30.116Z,2268.00
2018-11-26T12:06:30.102Z,2296.00
2018-11-26T12:07:30.091Z,2196.00
2018-11-26T12:08:30.083Z,2164.00
2018-11-26T12:09:30.073Z,2192.00
2018-11-26T12:10:30.061Z,2296.00
2018-11-26T12:11:30.053Z,2448.00
2018-11-26T12:12:30.036Z,2488.00
2018-11-26T12:13:30.025Z,2400.00
2018-11-26T12:14:30.014Z,2288.00
2018-11-26T12:15:30.001Z,2404.00
2018-11-26T12:16:29.996Z,2572.00
2018-11-26T12:17:29.980Z,2492.00
2018-11-26T12:18:29.972Z,2488.00
2018-11-26T12:19:29.962Z,2692.00
2018-11-26T12:20:29.945Z,2804.00
2018-11-26T12:21:29.940Z,2716.00
2018-11-26T12:22:29.928Z,2532.00
2018-11-26T12:23:29.911Z,2396.00
2018-11-26T12:24:29.904Z,2188.00
2018-11-26T12:25:29.891Z,2184.00
2018-11-26T12:26:29.880Z,2284.00
2018-11-26T12:27:29.869Z,2624.00
2018-11-26T12:28:29.856Z,2768.00
2018-11-26T12:29:29.847Z,2484.00
2018-11-26T12:30:29.841Z,2492.00
2018-11-26T12:31:29.827Z,2228.00
2018-11-26T12:32:29.812Z,2132.00
2018-11-26T12:33:29.803Z,2044.00
2018-11-26T12:34:29.790Z,1884.00
2018-11-26T12:35:29.780Z,1784.00
2018-11-26T12:36:29.767Z,1760.00
2018-11-26T12:37:29.759Z,1812.00
2018-11-26T12:38:29.746Z,1940.00
2018-11-26T12:39:29.735Z,1872.00
2018-11-26T12:40:29.723Z,1708.00
2018-11-26T12:41:29.712Z,1804.00
2018-11-26T12:42:29.701Z,1796.00
2018-11-26T12:43:29.695Z,1656.00
2018-11-26T12:44:29.680Z,1552.00
2018-11-26T12:45:29.669Z,1492.00
2018-11-26T12:46:29.658Z,1484.00
2018-11-26T12:47:29.644Z,1428.00
2018-11-26T12:48:29.636Z,1344.00
2018-11-26T12:49:29.626Z,1320.00
2018-11-26T12:50:29.613Z,1296.00
2018-11-26T12:51:29.600Z,1332.00
2018-11-26T12:52:29.588Z,1256.00
2018-11-26T12:53:29.577Z,1248.00
2018-11-26T12:54:29.567Z,1216.00
2018-11-26T12:55:29.557Z,1220.00
2018-11-26T12:56:29.544Z,1308.00
2018-11-26T12:57:29.539Z,1344.00
2018-11-26T12:58:29.524Z,1336.00
2018-11-26T12:59:29.513Z,1244.00
2018-11-26T13:00:29.501Z,1120.00
2018-11-26T13:01:29.493Z,1112.00
2018-11-26T13:02:29.479Z,1108.00
2018-11-26T13:03:29.467Z,1060.00
2018-11-26T13:04:29.458Z,1048.00
2018-11-26T13:05:29.452Z,1136.00
2018-11-26T13:06:29.439Z,1160.00
2018-11-26T13:07:29.424Z,1136.00
2018-11-26T13:08:29.410Z,1052.00
2018-11-26T13:09:29.400Z,1004.00
2018-11-26T13:10:29.389Z,1076.00
2018-11-26T13:11:29.377Z,1148.00
2018-11-26T13:12:29.367Z,1124.00
2018-11-26T13:13:29.356Z,1036.00
2018-11-26T13:14:29.346Z,996.00
2018-11-26T13:15:29.616Z,1004.00
2018-11-26T13:16:29.326Z,988.00
2018-11-26T13:17:29.312Z,916.00
2018-11-26T13:18:29.301Z,856.00
2018-11-26T13:19:29.296Z,840.00
2018-11-26T13:20:29.280Z,824.00
2018-11-26T13:21:29.269Z,804.00
2018-11-26T13:22:29.257Z,816.00